createdAt,value
2018-06-01T00:01:32.820Z,20.37
2018-06-01T00:04:00.604Z,16.50
2018-06-01T00:06:28.344Z,14.60
2018-06-01T00:08:56.128Z,14.50
2018-06-01T00:11:23.926Z,14.13
2018-06-01T00:13:52.468Z,13.60
2018-06-01T00:16:20.205Z,13.67
2018-06-01T00:18:47.969Z,12.97
2018-06-01T00:21:16.525Z,13.70
2018-06-01T00:23:45.046Z,12.83
2018-06-01T00:26:12.872Z,13.87
2018-06-01T00:28:41.447Z,15.77
2018-06-01T00:31:10.011Z,19.23
2018-06-01T00:33:37.870Z,20.90
2018-06-01T00:36:05.682Z,17.03
2018-06-01T00:38:33.478Z,16.20
2018-06-01T00:41:01.316Z,15.27
2018-06-01T00:43:29.128Z,14.13
2018-06-01T00:45:56.977Z,13.70
2018-06-01T00:48:24.829Z,13.00
2018-06-01T00:50:52.624Z,12.47
2018-06-01T00:53:20.411Z,12.30
2018-06-01T00:55:49.024Z,11.30
2018-06-01T00:58:16.844Z,11.73
2018-06-01T01:00:45.434Z,10.23
2018-06-01T01:03:13.260Z,10.50
2018-06-01T01:05:41.061Z,12.00
2018-06-01T01:08:08.883Z,13.17
2018-06-01T01:10:36.731Z,12.70
2018-06-01T01:13:04.586Z,12.70
2018-06-01T01:15:32.395Z,12.97
2018-06-01T01:18:00.210Z,12.67
2018-06-01T01:20:28.862Z,11.97
2018-06-01T01:22:56.681Z,12.47
2018-06-01T01:25:24.539Z,13.07
2018-06-01T01:27:52.377Z,12.97
2018-06-01T01:30:20.170Z,12.70
2018-06-01T01:32:48.031Z,13.70
2018-06-01T01:35:16.672Z,13.60
2018-06-01T01:37:44.466Z,11.90
2018-06-01T01:40:13.076Z,13.60
2018-06-01T01:42:40.911Z,14.10
2018-06-01T01:45:09.475Z,14.23
2018-06-01T01:47:37.325Z,13.23
2018-06-01T01:50:05.193Z,14.70
2018-06-01T01:52:33.010Z,16.60
2018-06-01T01:55:01.595Z,17.60
2018-06-01T01:57:30.225Z,16.80
2018-06-01T01:59:58.027Z,17.63
2018-06-01T02:02:26.645Z,16.80
2018-06-01T02:04:54.448Z,16.90
2018-06-01T02:07:22.264Z,17.13
2018-06-01T02:09:50.097Z,16.20
2018-06-01T02:12:17.898Z,17.20
2018-06-01T02:14:45.728Z,16.30
2018-06-01T02:17:13.567Z,16.37
2018-06-01T02:19:41.364Z,17.03
2018-06-01T02:22:09.153Z,16.90
2018-06-01T02:24:37.044Z,16.80
2018-06-01T02:27:05.670Z,15.97
2018-06-01T02:29:33.455Z,16.23
2018-06-01T02:32:02.059Z,15.20
2018-06-01T02:34:29.899Z,15.70
2018-06-01T02:36:58.453Z,14.23
2018-06-01T02:39:26.344Z,15.70
2018-06-01T02:41:54.901Z,16.80
2018-06-01T02:44:22.704Z,18.27
2018-06-01T02:46:51.328Z,16.83
2018-06-01T02:49:19.126Z,16.37
2018-06-01T02:51:47.058Z,15.13
2018-06-01T02:54:14.872Z,14.70
2018-06-01T02:56:42.686Z,13.23
2018-06-01T02:59:10.485Z,14.27
2018-06-01T03:01:38.307Z,13.20
2018-06-01T03:04:06.118Z,13.63
2018-06-01T03:09:33.113Z,12.50
2018-06-01T03:12:01.769Z,13.40
2018-06-01T03:14:29.586Z,13.10
2018-06-01T03:16:57.407Z,13.60
2018-06-01T03:19:25.287Z,13.07
2018-06-01T03:21:53.872Z,13.50
2018-06-01T03:24:22.411Z,13.40
2018-06-01T03:26:50.303Z,13.27
2018-06-01T03:29:18.122Z,15.00
2018-06-01T03:31:45.972Z,13.40
2018-06-01T03:34:13.856Z,14.70
2018-06-01T03:36:41.650Z,16.47
2018-06-01T03:39:09.477Z,16.70
2018-06-01T03:41:37.283Z,17.47
2018-06-01T03:44:05.180Z,19.20
2018-06-01T03:46:33.748Z,20.43
2018-06-01T03:49:01.556Z,20.87
2018-06-01T03:51:29.378Z,22.40
2018-06-01T03:53:57.170Z,20.53
2018-06-01T03:56:25.769Z,17.47
2018-06-01T03:58:53.554Z,19.03
2018-06-01T04:01:21.364Z,21.00
2018-06-01T04:03:49.977Z,20.03
2018-06-01T04:06:17.780Z,18.43
2018-06-01T04:08:45.649Z,18.37
2018-06-01T04:11:13.501Z,20.03
2018-06-01T04:13:41.310Z,21.67
2018-06-01T04:16:09.866Z,17.40
2018-06-01T04:18:37.699Z,16.77
2018-06-01T04:21:05.603Z,16.77
2018-06-01T04:23:33.391Z,14.33
2018-06-01T04:26:01.200Z,13.33
2018-06-01T04:28:28.981Z,13.37
2018-06-01T04:30:56.799Z,12.97
2018-06-01T04:33:25.428Z,12.07
2018-06-01T04:35:53.207Z,13.63
2018-06-01T04:38:21.044Z,12.90
2018-06-01T04:40:48.869Z,13.70
2018-06-01T04:43:17.410Z,12.60
2018-06-01T04:45:45.257Z,13.93
2018-06-01T04:48:13.122Z,13.23
2018-06-01T04:50:40.905Z,13.47
2018-06-01T04:53:08.710Z,11.63
2018-06-01T04:55:37.358Z,11.53
2018-06-01T04:58:05.182Z,11.47
2018-06-01T05:00:32.958Z,11.43
2018-06-01T05:03:00.767Z,11.20
2018-06-01T05:05:28.597Z,10.33
2018-06-01T05:07:56.420Z,10.80
2018-06-01T05:10:25.011Z,10.90
2018-06-01T05:12:53.668Z,9.60
2018-06-01T05:15:21.484Z,9.50
2018-06-01T05:17:49.307Z,10.23
2018-06-01T05:20:17.106Z,16.77
2018-06-01T05:22:44.921Z,20.70
2018-06-01T05:25:12.736Z,24.40
2018-06-01T05:27:41.308Z,24.27
2018-06-01T05:30:09.843Z,23.37
2018-06-01T05:32:37.688Z,21.67
2018-06-01T05:35:05.866Z,19.87
2018-06-01T05:37:33.739Z,13.93
2018-06-01T05:40:01.562Z,14.33
2018-06-01T05:42:30.121Z,12.90
2018-06-01T05:44:57.930Z,13.00
2018-06-01T05:47:25.818Z,12.97
2018-06-01T05:49:53.613Z,14.80
2018-06-01T05:52:21.424Z,13.00
2018-06-01T05:54:49.236Z,9.63
2018-06-01T05:57:17.028Z,10.83
2018-06-01T05:59:45.595Z,9.57
2018-06-01T06:02:13.436Z,9.33
2018-06-01T06:04:41.292Z,8.43
2018-06-01T06:07:09.122Z,7.70
2018-06-01T06:09:37.725Z,8.40
2018-06-01T06:12:05.530Z,7.00
2018-06-01T06:14:33.314Z,7.80
2018-06-01T06:17:01.104Z,9.43
2018-06-01T06:19:28.891Z,6.77
2018-06-01T06:21:56.677Z,7.20
2018-06-01T06:24:24.521Z,5.93
2018-06-01T06:26:52.331Z,8.73
2018-06-01T06:29:20.127Z,8.13
2018-06-01T06:31:48.061Z,8.33
2018-06-01T06:34:15.997Z,8.87
2018-06-01T06:36:43.997Z,9.23
2018-06-01T06:39:11.961Z,8.73
2018-06-01T06:41:39.775Z,8.60
2018-06-01T06:44:07.737Z,6.50
2018-06-01T06:46:35.568Z,7.10
2018-06-01T06:49:03.393Z,6.57
2018-06-01T06:51:31.211Z,6.77
2018-06-01T06:53:59.764Z,6.40
2018-06-01T06:56:27.562Z,6.00
2018-06-01T06:58:56.164Z,5.33
2018-06-01T07:01:23.976Z,5.33
2018-06-01T07:03:51.809Z,4.87
2018-06-01T07:06:19.638Z,5.07
2018-06-01T07:08:48.203Z,4.00
2018-06-01T07:11:15.976Z,5.00
2018-06-01T07:13:43.796Z,4.37
2018-06-01T07:16:11.610Z,4.10
2018-06-01T07:18:39.398Z,5.07
2018-06-01T07:21:07.233Z,5.13
2018-06-01T07:23:35.075Z,5.40
2018-06-01T07:26:02.867Z,6.70
2018-06-01T07:28:30.715Z,6.97
2018-06-01T07:30:58.519Z,6.60
2018-06-01T07:33:27.069Z,7.30
2018-06-01T07:35:54.910Z,6.40
2018-06-01T07:38:22.722Z,8.90
2018-06-01T07:40:51.300Z,9.20
2018-06-01T07:43:19.876Z,7.40
2018-06-01T07:45:47.670Z,7.90
2018-06-01T07:48:15.478Z,9.80
2018-06-01T07:50:43.291Z,9.40
2018-06-01T07:53:11.898Z,9.60
2018-06-01T07:55:39.716Z,7.37
2018-06-01T07:58:07.492Z,9.67
2018-06-01T08:00:36.116Z,8.07
2018-06-01T08:03:03.951Z,5.90
2018-06-01T08:05:32.484Z,6.57
2018-06-01T08:08:00.296Z,6.43
2018-06-01T08:10:28.924Z,7.00
2018-06-01T08:12:56.712Z,6.67
2018-06-01T08:15:24.565Z,7.57
2018-06-01T08:17:52.404Z,7.23
2018-06-01T08:20:20.195Z,7.33
2018-06-01T08:22:47.978Z,8.43
2018-06-01T08:25:15.876Z,7.73
2018-06-01T08:27:44.488Z,8.60
2018-06-01T08:30:12.287Z,8.83
2018-06-01T08:32:40.112Z,7.87
2018-06-01T08:35:07.921Z,7.93
2018-06-01T08:37:35.747Z,7.67
2018-06-01T08:40:03.646Z,6.63
2018-06-01T08:42:31.433Z,7.73
2018-06-01T08:44:59.280Z,7.10
2018-06-01T08:47:27.103Z,7.37
2018-06-01T08:49:55.292Z,6.87
2018-06-01T08:52:23.124Z,7.40
2018-06-01T08:54:50.938Z,7.10
2018-06-01T08:57:18.744Z,9.03
2018-06-01T08:59:47.283Z,9.43
2018-06-01T09:02:15.112Z,8.07
2018-06-01T09:04:42.891Z,8.10
2018-06-01T09:07:10.663Z,8.20
2018-06-01T09:09:38.469Z,8.20
2018-06-01T09:12:06.311Z,8.37
2018-06-01T09:14:34.101Z,9.30
2018-06-01T09:17:01.929Z,10.27
2018-06-01T09:19:29.728Z,7.57
2018-06-01T09:21:58.332Z,9.90
2018-06-01T09:24:26.913Z,10.10
2018-06-01T09:26:55.512Z,8.40
2018-06-01T09:29:24.112Z,8.90
2018-06-01T09:31:51.909Z,8.67
2018-06-01T09:34:19.695Z,8.67
2018-06-01T09:36:47.541Z,9.97
2018-06-01T09:39:15.354Z,9.00
2018-06-01T09:41:43.936Z,8.23
2018-06-01T09:44:12.539Z,8.57
2018-06-01T09:46:40.421Z,7.77
2018-06-01T09:49:08.627Z,9.00
2018-06-01T09:51:36.656Z,7.40
2018-06-01T09:54:04.495Z,9.20
2018-06-01T09:56:33.108Z,8.93
2018-06-01T09:59:00.915Z,8.83
2018-06-01T10:01:28.720Z,8.53
2018-06-01T10:03:56.530Z,8.60
2018-06-01T10:06:24.372Z,9.40
2018-06-01T10:08:52.175Z,8.67
2018-06-01T10:11:19.997Z,8.73
2018-06-01T10:13:47.796Z,9.70
2018-06-01T10:16:15.610Z,9.50
2018-06-01T10:18:43.443Z,8.37
2018-06-01T10:21:12.026Z,9.23
2018-06-01T10:23:39.855Z,7.40
2018-06-01T10:26:07.652Z,6.80
2018-06-01T10:28:35.503Z,11.07
2018-06-01T10:31:03.318Z,7.10
2018-06-01T10:33:31.122Z,7.00
2018-06-01T10:35:58.932Z,7.10
2018-06-01T10:38:27.476Z,8.73
2018-06-01T10:40:55.309Z,6.60
2018-06-01T10:43:23.188Z,7.27
2018-06-01T10:45:51.000Z,7.33
2018-06-01T10:48:18.783Z,7.43
2018-06-01T10:50:47.344Z,7.60
2018-06-01T10:53:15.382Z,7.60
2018-06-01T10:55:43.983Z,6.03
2018-06-01T10:58:11.810Z,6.53
2018-06-01T11:00:39.635Z,6.50
2018-06-01T11:03:08.213Z,7.90
2018-06-01T11:05:36.056Z,9.53
2018-06-01T11:08:03.931Z,10.13
2018-06-01T11:10:31.723Z,10.53
2018-06-01T11:13:00.263Z,10.43
2018-06-01T11:15:28.074Z,9.90
2018-06-01T11:17:57.103Z,9.90
2018-06-01T11:20:24.946Z,8.70
2018-06-01T11:22:52.809Z,9.10
2018-06-01T11:25:20.607Z,8.30
2018-06-01T11:27:48.405Z,8.77
2018-06-01T11:30:16.204Z,8.37
2018-06-01T11:32:44.801Z,9.60
2018-06-01T11:35:13.345Z,6.43
2018-06-01T11:37:41.187Z,8.10
2018-06-01T11:40:08.976Z,8.30
2018-06-01T11:42:36.760Z,7.47
2018-06-01T11:45:05.375Z,6.97
2018-06-01T11:47:33.197Z,7.27
2018-06-01T11:50:02.382Z,8.67
2018-06-01T11:52:30.263Z,7.27
2018-06-01T11:54:58.818Z,7.27
2018-06-01T11:57:26.722Z,8.70
2018-06-01T11:59:55.284Z,9.47
2018-06-01T12:02:23.066Z,8.70
2018-06-01T12:04:51.659Z,9.47
2018-06-01T12:07:19.448Z,7.57
2018-06-01T12:09:47.259Z,6.97
2018-06-01T12:12:15.110Z,8.37
2018-06-01T12:14:42.875Z,6.87
2018-06-01T12:17:10.693Z,7.50
2018-06-01T12:19:38.481Z,7.90
2018-06-01T12:22:06.263Z,8.13
2018-06-01T12:24:34.085Z,8.73
2018-06-01T12:27:01.893Z,7.60
2018-06-01T12:29:29.782Z,8.30
2018-06-01T12:31:57.566Z,7.03
2018-06-01T12:34:26.115Z,7.87
2018-06-01T12:36:54.707Z,8.40
2018-06-01T12:39:22.497Z,7.93
2018-06-01T12:41:51.165Z,7.57
2018-06-01T12:44:19.751Z,8.97
2018-06-01T12:46:48.325Z,8.23
2018-06-01T12:49:16.176Z,8.67
2018-06-01T12:51:43.959Z,7.70
2018-06-01T12:54:11.751Z,9.50
2018-06-01T12:56:40.328Z,8.37
2018-06-01T12:59:08.916Z,8.10
2018-06-01T13:01:36.791Z,8.10
2018-06-01T13:04:04.718Z,8.37
2018-06-01T13:06:32.506Z,7.67
2018-06-01T13:09:01.157Z,7.80
2018-06-01T13:11:28.961Z,8.07
2018-06-01T13:13:57.511Z,8.13
2018-06-01T13:16:26.279Z,7.20
2018-06-01T13:18:55.075Z,8.17
2018-06-01T13:21:22.908Z,6.50
2018-06-01T13:23:50.770Z,7.63
2018-06-01T13:26:20.605Z,7.33
2018-06-01T13:28:49.141Z,7.53
2018-06-01T13:31:18.895Z,7.23
2018-06-01T13:33:48.906Z,7.70
2018-06-01T13:36:19.511Z,6.80
2018-06-01T13:38:48.128Z,7.67
2018-06-01T13:41:15.932Z,6.93
2018-06-01T13:43:45.236Z,7.30
2018-06-01T13:46:16.042Z,7.03
2018-06-01T13:48:43.913Z,8.50
2018-06-01T13:51:11.736Z,8.90
2018-06-01T13:53:39.549Z,8.10
2018-06-01T13:56:07.414Z,8.13
2018-06-01T13:58:35.339Z,9.33
2018-06-01T14:01:03.189Z,8.57
2018-06-01T14:03:31.011Z,8.80
2018-06-01T14:05:58.820Z,9.73
2018-06-01T14:08:26.655Z,9.23
2018-06-01T14:10:54.465Z,9.27
2018-06-01T14:13:22.275Z,8.87
2018-06-01T14:15:50.093Z,10.20
2018-06-01T14:18:17.902Z,9.70
2018-06-01T14:20:45.742Z,7.60
2018-06-01T14:23:13.538Z,8.40
2018-06-01T14:25:42.433Z,9.10
2018-06-01T14:28:10.398Z,9.97
2018-06-01T14:30:38.200Z,7.97
2018-06-01T14:33:06.730Z,9.07
2018-06-01T14:35:34.561Z,8.10
2018-06-01T14:38:02.372Z,9.07
2018-06-01T14:40:30.247Z,9.30
2018-06-01T14:42:58.071Z,9.40
2018-06-01T14:45:30.957Z,9.63
2018-06-01T14:47:58.792Z,9.70
2018-06-01T14:50:26.628Z,9.40
2018-06-01T14:52:54.434Z,9.50
2018-06-01T14:55:22.285Z,8.53
2018-06-01T14:57:50.863Z,8.07
2018-06-01T15:00:19.473Z,6.83
2018-06-01T15:02:47.257Z,9.93
2018-06-01T15:05:15.035Z,8.47
2018-06-01T15:07:42.846Z,10.10
2018-06-01T15:10:13.291Z,8.97
2018-06-01T15:12:41.104Z,9.63
2018-06-01T15:15:08.948Z,8.37
2018-06-01T15:17:36.724Z,8.20
2018-06-01T15:20:04.558Z,8.40
2018-06-01T15:22:32.356Z,9.87
2018-06-01T15:25:00.180Z,10.50
2018-06-01T15:27:28.052Z,7.53
2018-06-01T15:29:55.854Z,7.73
2018-06-01T15:32:23.661Z,9.27
2018-06-01T15:34:52.233Z,8.03
2018-06-01T15:37:20.785Z,8.30
2018-06-01T15:39:48.592Z,8.07
2018-06-01T15:42:17.188Z,7.97
2018-06-01T15:44:45.141Z,7.80
2018-06-01T15:47:12.980Z,8.47
2018-06-01T15:49:40.801Z,7.97
2018-06-01T15:52:08.582Z,9.70
2018-06-01T15:54:36.357Z,9.60
2018-06-01T15:57:04.203Z,7.70
2018-06-01T15:59:32.004Z,8.23
2018-06-01T16:01:59.793Z,9.60
2018-06-01T16:04:28.384Z,8.90
2018-06-01T16:06:56.961Z,8.50
2018-06-01T16:09:25.553Z,8.70
2018-06-01T16:11:53.387Z,7.57
2018-06-01T16:14:21.177Z,8.40
2018-06-01T16:16:49.761Z,9.20
2018-06-01T16:19:18.687Z,9.43
2018-06-01T16:21:46.511Z,9.10
2018-06-01T16:24:14.314Z,8.03
2018-06-01T16:26:42.136Z,8.60
2018-06-01T16:29:10.705Z,7.90
2018-06-01T16:31:38.498Z,8.13
2018-06-01T16:34:07.059Z,8.93
2018-06-01T16:36:34.856Z,9.83
2018-06-01T16:39:02.671Z,9.30
2018-06-01T16:41:30.497Z,8.73
2018-06-01T16:43:58.298Z,10.40
2018-06-01T16:46:26.081Z,11.90
2018-06-01T16:48:53.921Z,8.17
2018-06-01T16:51:21.718Z,7.43
2018-06-01T16:53:50.288Z,9.20
2018-06-01T16:56:18.135Z,8.10
2018-06-01T16:58:45.993Z,7.30
2018-06-01T17:01:13.798Z,7.40
2018-06-01T17:03:42.464Z,8.30
2018-06-01T17:06:10.434Z,8.53
2018-06-01T17:08:38.200Z,8.40
2018-06-01T17:11:06.021Z,8.03
2018-06-01T17:13:33.835Z,9.07
2018-06-01T17:16:01.662Z,9.43
2018-06-01T17:18:29.484Z,8.90
2018-06-01T17:20:58.055Z,8.40
2018-06-01T17:23:25.856Z,8.50
2018-06-01T17:25:53.712Z,8.90
2018-06-01T17:28:21.512Z,9.53
2018-06-01T17:30:49.321Z,8.20
2018-06-01T17:33:18.063Z,8.80
2018-06-01T17:35:45.884Z,9.47
2018-06-01T17:38:14.461Z,10.00
2018-06-01T17:40:43.057Z,9.30
2018-06-01T17:43:10.847Z,10.13
2018-06-01T17:45:38.653Z,9.33
2018-06-01T17:48:06.511Z,9.20
2018-06-01T17:50:34.331Z,11.40
2018-06-01T17:53:02.132Z,8.57
2018-06-01T17:55:30.025Z,9.83
2018-06-01T17:57:58.798Z,9.23
2018-06-01T18:00:26.632Z,8.97
2018-06-01T18:02:54.497Z,9.77
2018-06-01T18:05:22.541Z,9.37
2018-06-01T18:07:51.141Z,9.23
2018-06-01T18:10:19.002Z,10.20
2018-06-01T18:12:46.893Z,10.77
2018-06-01T18:15:14.727Z,9.93
2018-06-01T18:17:42.557Z,10.10
2018-06-01T18:20:11.111Z,9.13
2018-06-01T18:22:38.968Z,9.20
2018-06-01T18:25:06.800Z,9.60
2018-06-01T18:27:35.405Z,9.33
2018-06-01T18:30:03.319Z,10.50
2018-06-01T18:32:31.308Z,10.00
2018-06-01T18:34:59.204Z,8.90
2018-06-01T18:37:27.167Z,8.63
2018-06-01T18:39:55.012Z,10.03
2018-06-01T18:42:23.633Z,10.53
2018-06-01T18:44:51.832Z,8.87
2018-06-01T18:47:19.620Z,9.83
2018-06-01T18:49:47.434Z,10.90
2018-06-01T18:52:15.260Z,11.60
2018-06-01T18:54:43.877Z,10.13
2018-06-01T18:57:11.800Z,11.10
2018-06-01T18:59:40.538Z,11.57
2018-06-01T19:02:08.461Z,11.43
2018-06-01T19:04:37.069Z,10.87
2018-06-01T19:07:04.883Z,10.00
2018-06-01T19:09:32.717Z,11.13
2018-06-01T19:12:00.559Z,12.90
2018-06-01T19:14:29.124Z,10.50
2018-06-01T19:16:56.915Z,11.67
2018-06-01T19:19:25.485Z,12.70
2018-06-01T19:21:54.049Z,13.07
2018-06-01T19:24:21.884Z,11.70
2018-06-01T19:26:49.709Z,12.00
2018-06-01T19:29:17.510Z,11.67
2018-06-01T19:31:45.301Z,10.40
2018-06-01T19:34:13.286Z,10.00
2018-06-01T19:36:41.091Z,11.23
2018-06-01T19:39:08.888Z,9.87
2018-06-01T19:41:36.743Z,11.40
2018-06-01T19:44:04.564Z,10.23
2018-06-01T19:46:33.555Z,10.63
2018-06-01T19:49:02.169Z,11.07
2018-06-01T19:51:30.810Z,12.20
2018-06-01T19:53:59.391Z,10.63
2018-06-01T19:56:27.352Z,11.10
2018-06-01T19:58:55.979Z,10.13
2018-06-01T20:01:23.796Z,11.20
2018-06-01T20:03:51.614Z,12.07
2018-06-01T20:06:19.410Z,11.00
2018-06-01T20:08:47.200Z,12.00
2018-06-01T20:11:15.820Z,12.73
2018-06-01T20:13:43.632Z,13.50
2018-06-01T20:16:11.462Z,17.87
2018-06-01T20:18:39.397Z,14.47
2018-06-01T20:21:07.340Z,15.40
2018-06-01T20:23:35.176Z,17.17
2018-06-01T20:26:03.021Z,14.93
2018-06-01T20:28:30.891Z,14.10
2018-06-01T20:30:58.798Z,14.60
2018-06-01T20:33:26.685Z,13.40
2018-06-01T20:35:55.254Z,12.30
2018-06-01T20:38:23.961Z,10.87
2018-06-01T20:40:53.569Z,9.93
2018-06-01T20:43:22.194Z,10.10
2018-06-01T20:45:50.169Z,11.00
2018-06-01T20:48:18.107Z,11.50
2018-06-01T20:50:46.040Z,12.73
2018-06-01T20:53:14.639Z,11.87
2018-06-01T20:55:43.235Z,12.30
2018-06-01T20:58:11.789Z,12.40
2018-06-01T21:00:40.409Z,10.20
2018-06-01T21:03:08.229Z,11.30
2018-06-01T21:05:36.031Z,10.60
2018-06-01T21:08:04.625Z,10.77
2018-06-01T21:10:32.460Z,11.30
2018-06-01T21:13:01.080Z,10.70
2018-06-01T21:15:29.097Z,10.10
2018-06-01T21:17:56.904Z,9.83
2018-06-01T21:20:25.482Z,13.10
2018-06-01T21:22:54.072Z,11.33
2018-06-01T21:25:22.772Z,11.20
2018-06-01T21:27:50.676Z,12.77
2018-06-01T21:30:18.511Z,11.20
2018-06-01T21:32:46.519Z,11.40
2018-06-01T21:35:14.339Z,11.10
2018-06-01T21:37:42.170Z,12.67
2018-06-01T21:40:10.753Z,10.80
2018-06-01T21:42:39.758Z,10.33
2018-06-01T21:45:07.613Z,11.20
2018-06-01T21:47:36.389Z,10.03
2018-06-01T21:50:04.261Z,10.87
2018-06-01T21:52:32.934Z,11.50
2018-06-01T21:55:00.768Z,11.80
2018-06-01T21:57:28.566Z,11.97
2018-06-01T21:59:56.438Z,9.30
2018-06-01T22:02:24.246Z,9.27
2018-06-01T22:04:52.028Z,11.90
2018-06-01T22:07:19.833Z,13.33
2018-06-01T22:09:47.788Z,12.20
2018-06-01T22:12:15.650Z,13.17
2018-06-01T22:14:43.468Z,12.53
2018-06-01T22:17:12.067Z,11.13
2018-06-01T22:19:39.890Z,10.93
2018-06-01T22:22:07.775Z,10.50
2018-06-01T22:24:36.373Z,11.20
2018-06-01T22:27:04.204Z,9.97
2018-06-01T22:29:32.821Z,10.83
2018-06-01T22:32:00.606Z,9.80
2018-06-01T22:34:29.192Z,11.07
2018-06-01T22:36:57.015Z,10.47
2018-06-01T22:39:25.571Z,8.70
2018-06-01T22:41:53.393Z,8.80
2018-06-01T22:44:21.254Z,10.80
2018-06-01T22:46:49.115Z,10.07
2018-06-01T22:49:16.988Z,9.00
2018-06-01T22:51:45.545Z,8.63
2018-06-01T22:54:14.099Z,10.33
2018-06-01T22:56:42.252Z,10.47
2018-06-01T22:59:10.037Z,10.57
2018-06-01T23:01:37.886Z,13.13
2018-06-01T23:04:05.729Z,13.50
2018-06-01T23:06:33.569Z,13.20
2018-06-01T23:09:02.125Z,13.10
2018-06-01T23:11:29.978Z,12.27
2018-06-01T23:13:57.774Z,11.90
2018-06-01T23:16:26.348Z,13.67
2018-06-01T23:18:54.946Z,11.07
2018-06-01T23:21:23.513Z,11.80
2018-06-01T23:23:51.400Z,10.60
2018-06-01T23:26:19.721Z,9.17
2018-06-01T23:28:47.560Z,9.90
2018-06-01T23:31:15.463Z,10.00
2018-06-01T23:33:43.312Z,10.17
2018-06-01T23:36:11.110Z,9.50
2018-06-01T23:38:38.908Z,7.97
2018-06-01T23:41:07.507Z,9.07
2018-06-01T23:43:35.295Z,8.43
2018-06-01T23:46:03.144Z,8.50
2018-06-01T23:48:30.974Z,7.50
2018-06-01T23:50:59.548Z,7.27
2018-06-01T23:53:28.147Z,7.60
2018-06-01T23:55:56.712Z,7.53
2018-06-01T23:58:25.333Z,7.67
